sensor_id;sensor_type;location;lat;lon;timestamp;temperature;humidity
4739;DHT22;2383;48.632;10.156;2022-07-23T00:02:15;27.60;88.10
4739;DHT22;2383;48.632;10.156;2022-07-23T00:06:17;27.80;90.20
4739;DHT22;2383;48.632;10.156;2022-07-23T00:10:19;27.60;88.70
4739;DHT22;2383;48.632;10.156;2022-07-23T00:14:21;27.20;87.20
4739;DHT22;2383;48.632;10.156;2022-07-23T00:18:24;27.10;88.40
4739;DHT22;2383;48.632;10.156;2022-07-23T00:22:27;26.50;90.10
4739;DHT22;2383;48.632;10.156;2022-07-23T00:26:30;26.00;91.60
4739;DHT22;2383;48.632;10.156;2022-07-23T00:30:32;26.00;91.90
4739;DHT22;2383;48.632;10.156;2022-07-23T00:34:34;26.00;91.80
4739;DHT22;2383;48.632;10.156;2022-07-23T00:38:36;26.10;91.10
4739;DHT22;2383;48.632;10.156;2022-07-23T00:42:38;26.10;91.40
4739;DHT22;2383;48.632;10.156;2022-07-23T00:46:49;25.90;92.00
4739;DHT22;2383;48.632;10.156;2022-07-23T00:50:54;26.10;93.00
4739;DHT22;2383;48.632;10.156;2022-07-23T00:54:56;26.40;92.50
4739;DHT22;2383;48.632;10.156;2022-07-23T00:59:00;26.70;92.20
4739;DHT22;2383;48.632;10.156;2022-07-23T01:03:03;26.40;92.30
4739;DHT22;2383;48.632;10.156;2022-07-23T01:07:05;26.60;92.90
4739;DHT22;2383;48.632;10.156;2022-07-23T01:11:07;26.80;93.60
4739;DHT22;2383;48.632;10.156;2022-07-23T01:15:09;27.10;93.40
4739;DHT22;2383;48.632;10.156;2022-07-23T01:19:12;26.60;93.00
4739;DHT22;2383;48.632;10.156;2022-07-23T01:23:14;26.80;93.50
4739;DHT22;2383;48.632;10.156;2022-07-23T01:27:15;26.40;94.70
4739;DHT22;2383;48.632;10.156;2022-07-23T01:31:19;26.00;95.10
4739;DHT22;2383;48.632;10.156;2022-07-23T01:35:21;26.20;95.40
4739;DHT22;2383;48.632;10.156;2022-07-23T01:39:23;26.30;95.40
4739;DHT22;2383;48.632;10.156;2022-07-23T01:43:25;26.30;95.30
4739;DHT22;2383;48.632;10.156;2022-07-23T01:47:28;26.00;95.70
4739;DHT22;2383;48.632;10.156;2022-07-23T01:51:30;26.40;95.30
4739;DHT22;2383;48.632;10.156;2022-07-23T01:55:31;26.20;95.90
4739;DHT22;2383;48.632;10.156;2022-07-23T01:59:34;26.30;96.10
4739;DHT22;2383;48.632;10.156;2022-07-23T02:03:36;26.00;96.30
4739;DHT22;2383;48.632;10.156;2022-07-23T02:07:37;26.00;96.80
4739;DHT22;2383;48.632;10.156;2022-07-23T02:11:39;26.20;96.70
4739;DHT22;2383;48.632;10.156;2022-07-23T02:15:41;25.30;98.10
4739;DHT22;2383;48.632;10.156;2022-07-23T02:19:43;26.00;97.40
4739;DHT22;2383;48.632;10.156;2022-07-23T02:23:45;26.30;96.60
4739;DHT22;2383;48.632;10.156;2022-07-23T02:27:46;26.30;96.60
4739;DHT22;2383;48.632;10.156;2022-07-23T02:31:48;26.00;97.00
4739;DHT22;2383;48.632;10.156;2022-07-23T02:35:50;26.10;97.60
4739;DHT22;2383;48.632;10.156;2022-07-23T02:39:53;26.30;97.20
4739;DHT22;2383;48.632;10.156;2022-07-23T02:43:55;26.20;97.40
4739;DHT22;2383;48.632;10.156;2022-07-23T02:47:56;26.30;97.10
4739;DHT22;2383;48.632;10.156;2022-07-23T02:51:58;26.40;96.70
4739;DHT22;2383;48.632;10.156;2022-07-23T02:56:00;26.30;96.90
4739;DHT22;2383;48.632;10.156;2022-07-23T03:00:04;25.90;97.20
4739;DHT22;2383;48.632;10.156;2022-07-23T03:04:06;25.70;98.20
4739;DHT22;2383;48.632;10.156;2022-07-23T03:08:08;25.80;98.20
4739;DHT22;2383;48.632;10.156;2022-07-23T03:12:11;25.60;98.30
4739;DHT22;2383;48.632;10.156;2022-07-23T03:16:15;25.40;98.50
4739;DHT22;2383;48.632;10.156;2022-07-23T03:20:16;25.30;97.90
4739;DHT22;2383;48.632;10.156;2022-07-23T03:24:18;25.40;97.90
4739;DHT22;2383;48.632;10.156;2022-07-23T03:28:20;25.40;97.70
4739;DHT22;2383;48.632;10.156;2022-07-23T03:32:22;25.50;97.80
4739;DHT22;2383;48.632;10.156;2022-07-23T03:36:25;25.40;98.10
4739;DHT22;2383;48.632;10.156;2022-07-23T03:40:27;25.30;98.10
4739;DHT22;2383;48.632;10.156;2022-07-23T03:44:28;25.70;98.00
4739;DHT22;2383;48.632;10.156;2022-07-23T03:48:30;25.60;98.00
4739;DHT22;2383;48.632;10.156;2022-07-23T03:52:32;25.60;97.70
4739;DHT22;2383;48.632;10.156;2022-07-23T03:56:34;25.70;97.50
4739;DHT22;2383;48.632;10.156;2022-07-23T04:00:36;25.40;97.90
4739;DHT22;2383;48.632;10.156;2022-07-23T04:04:38;25.20;97.90
4739;DHT22;2383;48.632;10.156;2022-07-23T04:08:39;25.00;98.10
4739;DHT22;2383;48.632;10.156;2022-07-23T04:12:41;25.50;97.90
4739;DHT22;2383;48.632;10.156;2022-07-23T04:16:43;25.40;97.70
4739;DHT22;2383;48.632;10.156;2022-07-23T04:20:45;25.10;98.40
4739;DHT22;2383;48.632;10.156;2022-07-23T04:24:46;24.80;98.40
4739;DHT22;2383;48.632;10.156;2022-07-23T04:28:50;24.70;99.20
4739;DHT22;2383;48.632;10.156;2022-07-23T04:32:51;24.80;98.80
4739;DHT22;2383;48.632;10.156;2022-07-23T04:36:53;24.20;99.40
4739;DHT22;2383;48.632;10.156;2022-07-23T04:40:55;24.50;99.30
4739;DHT22;2383;48.632;10.156;2022-07-23T04:44:57;24.40;99.50
4739;DHT22;2383;48.632;10.156;2022-07-23T04:48:59;24.50;99.40
4739;DHT22;2383;48.632;10.156;2022-07-23T04:53:01;25.10;98.30
4739;DHT22;2383;48.632;10.156;2022-07-23T04:57:04;25.00;98.70
4739;DHT22;2383;48.632;10.156;2022-07-23T05:01:06;24.50;99.20
4739;DHT22;2383;48.632;10.156;2022-07-23T05:05:08;24.40;99.80
4739;DHT22;2383;48.632;10.156;2022-07-23T05:09:09;24.70;99.60
4739;DHT22;2383;48.632;10.156;2022-07-23T05:13:11;24.40;99.90
4739;DHT22;2383;48.632;10.156;2022-07-23T05:17:13;24.80;99.40
4739;DHT22;2383;48.632;10.156;2022-07-23T05:21:15;25.00;99.30
4739;DHT22;2383;48.632;10.156;2022-07-23T05:25:17;25.40;98.60
4739;DHT22;2383;48.632;10.156;2022-07-23T05:29:19;25.20;99.00
4739;DHT22;2383;48.632;10.156;2022-07-23T05:33:21;24.80;99.80
4739;DHT22;2383;48.632;10.156;2022-07-23T05:37:23;24.80;99.70
4739;DHT22;2383;48.632;10.156;2022-07-23T05:41:24;24.80;99.90
4739;DHT22;2383;48.632;10.156;2022-07-23T05:45:26;25.20;99.60
4739;DHT22;2383;48.632;10.156;2022-07-23T05:49:28;25.60;98.90
4739;DHT22;2383;48.632;10.156;2022-07-23T05:53:31;25.90;98.20
4739;DHT22;2383;48.632;10.156;2022-07-23T05:57:33;25.90;97.90
4739;DHT22;2383;48.632;10.156;2022-07-23T06:01:34;24.80;99.50
4739;DHT22;2383;48.632;10.156;2022-07-23T06:05:36;24.80;99.50
4739;DHT22;2383;48.632;10.156;2022-07-23T06:09:38;25.10;98.80
4739;DHT22;2383;48.632;10.156;2022-07-23T06:13:40;25.60;98.20
4739;DHT22;2383;48.632;10.156;2022-07-23T06:17:42;26.80;96.90
4739;DHT22;2383;48.632;10.156;2022-07-23T06:21:43;27.30;96.00
4739;DHT22;2383;48.632;10.156;2022-07-23T06:25:47;27.40;95.90
4739;DHT22;2383;48.632;10.156;2022-07-23T06:29:49;27.20;96.10
4739;DHT22;2383;48.632;10.156;2022-07-23T06:33:51;27.20;95.70
4739;DHT22;2383;48.632;10.156;2022-07-23T06:37:52;27.40;95.50
4739;DHT22;2383;48.632;10.156;2022-07-23T06:41:54;27.60;94.70
4739;DHT22;2383;48.632;10.156;2022-07-23T06:46:01;27.90;94.00
4739;DHT22;2383;48.632;10.156;2022-07-23T06:50:03;27.80;93.70
4739;DHT22;2383;48.632;10.156;2022-07-23T06:54:06;27.50;92.90
4739;DHT22;2383;48.632;10.156;2022-07-23T06:58:07;27.40;93.30
4739;DHT22;2383;48.632;10.156;2022-07-23T07:02:11;27.50;92.20
4739;DHT22;2383;48.632;10.156;2022-07-23T07:06:14;27.30;91.90
4739;DHT22;2383;48.632;10.156;2022-07-23T07:10:16;26.60;92.70
4739;DHT22;2383;48.632;10.156;2022-07-23T07:14:19;26.50;92.70
4739;DHT22;2383;48.632;10.156;2022-07-23T07:18:20;26.60;92.30
4739;DHT22;2383;48.632;10.156;2022-07-23T07:22:22;26.60;91.70
4739;DHT22;2383;48.632;10.156;2022-07-23T07:26:24;26.90;91.20
4739;DHT22;2383;48.632;10.156;2022-07-23T07:30:26;27.30;90.80
4739;DHT22;2383;48.632;10.156;2022-07-23T07:34:34;27.20;91.10
4739;DHT22;2383;48.632;10.156;2022-07-23T07:38:36;27.00;91.30
4739;DHT22;2383;48.632;10.156;2022-07-23T07:42:49;26.80;91.30
4739;DHT22;2383;48.632;10.156;2022-07-23T07:46:51;27.30;91.20
4739;DHT22;2383;48.632;10.156;2022-07-23T07:50:54;27.10;91.10
4739;DHT22;2383;48.632;10.156;2022-07-23T07:54:56;27.60;90.00
4739;DHT22;2383;48.632;10.156;2022-07-23T07:58:58;27.30;90.00
4739;DHT22;2383;48.632;10.156;2022-07-23T08:02:59;27.50;89.60
4739;DHT22;2383;48.632;10.156;2022-07-23T08:07:04;27.30;90.30
4739;DHT22;2383;48.632;10.156;2022-07-23T08:11:05;27.10;90.50
4739;DHT22;2383;48.632;10.156;2022-07-23T08:15:08;28.00;90.70
4739;DHT22;2383;48.632;10.156;2022-07-23T08:19:14;28.30;90.20
4739;DHT22;2383;48.632;10.156;2022-07-23T08:23:16;29.10;88.60
4739;DHT22;2383;48.632;10.156;2022-07-23T08:27:20;28.40;88.10
4739;DHT22;2383;48.632;10.156;2022-07-23T08:31:22;28.00;88.10
4739;DHT22;2383;48.632;10.156;2022-07-23T08:35:28;28.60;87.10
4739;DHT22;2383;48.632;10.156;2022-07-23T08:39:30;28.10;87.50
4739;DHT22;2383;48.632;10.156;2022-07-23T08:43:33;28.60;87.40
4739;DHT22;2383;48.632;10.156;2022-07-23T08:47:40;28.10;85.80
4739;DHT22;2383;48.632;10.156;2022-07-23T08:51:44;27.30;88.10
4739;DHT22;2383;48.632;10.156;2022-07-23T08:55:48;27.90;86.00
4739;DHT22;2383;48.632;10.156;2022-07-23T08:59:50;28.20;85.70
4739;DHT22;2383;48.632;10.156;2022-07-23T09:03:52;27.80;86.90
4739;DHT22;2383;48.632;10.156;2022-07-23T09:08:23;27.00;87.00
4739;DHT22;2383;48.632;10.156;2022-07-23T09:12:25;27.80;87.80
4739;DHT22;2383;48.632;10.156;2022-07-23T09:16:30;28.20;85.80
4739;DHT22;2383;48.632;10.156;2022-07-23T09:20:33;28.70;85.40
4739;DHT22;2383;48.632;10.156;2022-07-23T09:24:36;29.20;86.10
4739;DHT22;2383;48.632;10.156;2022-07-23T09:29:08;29.30;84.90
4739;DHT22;2383;48.632;10.156;2022-07-23T09:33:14;29.20;84.50
4739;DHT22;2383;48.632;10.156;2022-07-23T09:37:19;29.50;84.40
4739;DHT22;2383;48.632;10.156;2022-07-23T09:41:21;29.00;81.90
4739;DHT22;2383;48.632;10.156;2022-07-23T09:45:25;28.70;85.70
4739;DHT22;2383;48.632;10.156;2022-07-23T09:49:27;27.70;86.00
4739;DHT22;2383;48.632;10.156;2022-07-23T09:53:31;28.00;85.70
4739;DHT22;2383;48.632;10.156;2022-07-23T09:57:33;27.90;86.50
4739;DHT22;2383;48.632;10.156;2022-07-23T10:01:35;28.90;85.30
4739;DHT22;2383;48.632;10.156;2022-07-23T10:05:37;29.30;83.70
4739;DHT22;2383;48.632;10.156;2022-07-23T10:09:41;29.80;83.60
4739;DHT22;2383;48.632;10.156;2022-07-23T10:13:43;28.90;84.70
4739;DHT22;2383;48.632;10.156;2022-07-23T10:17:54;28.50;85.20
4739;DHT22;2383;48.632;10.156;2022-07-23T10:22:06;29.30;86.10
4739;DHT22;2383;48.632;10.156;2022-07-23T10:26:52;29.70;84.80
4739;DHT22;2383;48.632;10.156;2022-07-23T10:31:06;30.40;83.10
4739;DHT22;2383;48.632;10.156;2022-07-23T10:40:22;30.10;84.80
4739;DHT22;2383;48.632;10.156;2022-07-23T10:44:23;30.30;83.90
4739;DHT22;2383;48.632;10.156;2022-07-23T10:48:27;30.20;82.90
4739;DHT22;2383;48.632;10.156;2022-07-23T10:52:32;29.60;85.10
4739;DHT22;2383;48.632;10.156;2022-07-23T11:00:55;30.60;83.60
4739;DHT22;2383;48.632;10.156;2022-07-23T11:05:21;30.80;83.00
4739;DHT22;2383;48.632;10.156;2022-07-23T11:17:37;29.80;82.90
4739;DHT22;2383;48.632;10.156;2022-07-23T11:21:40;30.60;81.90
4739;DHT22;2383;48.632;10.156;2022-07-23T11:25:42;29.90;82.00
4739;DHT22;2383;48.632;10.156;2022-07-23T11:29:46;29.30;83.40
4739;DHT22;2383;48.632;10.156;2022-07-23T11:34:24;29.50;83.10
4739;DHT22;2383;48.632;10.156;2022-07-23T11:38:34;29.80;83.10
4739;DHT22;2383;48.632;10.156;2022-07-23T11:43:11;30.00;82.10
4739;DHT22;2383;48.632;10.156;2022-07-23T11:47:13;30.20;82.60
4739;DHT22;2383;48.632;10.156;2022-07-23T11:51:25;30.10;81.30
4739;DHT22;2383;48.632;10.156;2022-07-23T11:55:27;30.10;82.10
4739;DHT22;2383;48.632;10.156;2022-07-23T11:59:33;30.30;82.00
4739;DHT22;2383;48.632;10.156;2022-07-23T12:03:51;29.40;83.90
4739;DHT22;2383;48.632;10.156;2022-07-23T12:07:57;29.90;83.10
4739;DHT22;2383;48.632;10.156;2022-07-23T12:12:00;29.00;83.00
4739;DHT22;2383;48.632;10.156;2022-07-23T12:16:02;28.90;84.20
4739;DHT22;2383;48.632;10.156;2022-07-23T12:20:09;29.30;84.70
4739;DHT22;2383;48.632;10.156;2022-07-23T12:24:15;29.70;82.70
4739;DHT22;2383;48.632;10.156;2022-07-23T12:28:20;30.10;82.70
4739;DHT22;2383;48.632;10.156;2022-07-23T12:32:27;30.20;81.10
4739;DHT22;2383;48.632;10.156;2022-07-23T12:36:38;28.70;80.80
4739;DHT22;2383;48.632;10.156;2022-07-23T12:45:07;29.50;81.60
4739;DHT22;2383;48.632;10.156;2022-07-23T12:49:09;29.70;81.60
4739;DHT22;2383;48.632;10.156;2022-07-23T12:53:17;29.80;80.70
4739;DHT22;2383;48.632;10.156;2022-07-23T12:57:45;29.50;80.70
4739;DHT22;2383;48.632;10.156;2022-07-23T13:01:55;30.20;81.10
4739;DHT22;2383;48.632;10.156;2022-07-23T13:06:00;29.50;78.90
4739;DHT22;2383;48.632;10.156;2022-07-23T13:10:03;30.00;80.60
4739;DHT22;2383;48.632;10.156;2022-07-23T13:14:07;29.50;80.20
4739;DHT22;2383;48.632;10.156;2022-07-23T13:18:10;29.20;80.50
4739;DHT22;2383;48.632;10.156;2022-07-23T13:22:12;29.30;79.30
4739;DHT22;2383;48.632;10.156;2022-07-23T13:26:14;29.50;79.20
4739;DHT22;2383;48.632;10.156;2022-07-23T13:30:16;30.20;78.00
4739;DHT22;2383;48.632;10.156;2022-07-23T13:34:19;29.70;78.80
4739;DHT22;2383;48.632;10.156;2022-07-23T13:38:21;29.50;79.00
4739;DHT22;2383;48.632;10.156;2022-07-23T13:42:23;29.50;78.40
4739;DHT22;2383;48.632;10.156;2022-07-23T13:46:26;29.10;79.20
4739;DHT22;2383;48.632;10.156;2022-07-23T13:50:28;29.30;79.00
4739;DHT22;2383;48.632;10.156;2022-07-23T13:54:34;29.80;78.60
4739;DHT22;2383;48.632;10.156;2022-07-23T13:58:39;30.40;77.50
4739;DHT22;2383;48.632;10.156;2022-07-23T14:02:42;30.00;77.00
4739;DHT22;2383;48.632;10.156;2022-07-23T14:06:44;29.40;77.90
4739;DHT22;2383;48.632;10.156;2022-07-23T14:10:53;29.50;77.80
4739;DHT22;2383;48.632;10.156;2022-07-23T14:14:55;30.00;76.60
4739;DHT22;2383;48.632;10.156;2022-07-23T14:18:56;29.40;77.20
4739;DHT22;2383;48.632;10.156;2022-07-23T14:22:58;28.90;77.70
4739;DHT22;2383;48.632;10.156;2022-07-23T14:27:06;29.40;77.00
4739;DHT22;2383;48.632;10.156;2022-07-23T14:31:08;29.40;76.40
4739;DHT22;2383;48.632;10.156;2022-07-23T14:35:21;29.20;75.70
4739;DHT22;2383;48.632;10.156;2022-07-23T14:39:26;29.40;75.60
4739;DHT22;2383;48.632;10.156;2022-07-23T14:43:28;29.10;76.10
4739;DHT22;2383;48.632;10.156;2022-07-23T14:47:30;29.40;76.90
4739;DHT22;2383;48.632;10.156;2022-07-23T14:51:32;29.40;74.40
4739;DHT22;2383;48.632;10.156;2022-07-23T14:55:34;29.20;76.00
4739;DHT22;2383;48.632;10.156;2022-07-23T14:59:36;29.20;74.90
4739;DHT22;2383;48.632;10.156;2022-07-23T15:03:38;29.20;76.20
4739;DHT22;2383;48.632;10.156;2022-07-23T15:07:43;29.30;75.20
4739;DHT22;2383;48.632;10.156;2022-07-23T15:11:47;29.10;75.40
4739;DHT22;2383;48.632;10.156;2022-07-23T15:15:49;29.50;74.90
4739;DHT22;2383;48.632;10.156;2022-07-23T15:19:56;29.20;73.80
4739;DHT22;2383;48.632;10.156;2022-07-23T15:23:59;29.30;73.70
4739;DHT22;2383;48.632;10.156;2022-07-23T15:28:01;28.80;74.40
4739;DHT22;2383;48.632;10.156;2022-07-23T15:32:04;29.20;73.00
4739;DHT22;2383;48.632;10.156;2022-07-23T15:36:06;29.60;74.60
4739;DHT22;2383;48.632;10.156;2022-07-23T15:40:09;30.00;74.00
4739;DHT22;2383;48.632;10.156;2022-07-23T15:44:14;29.60;74.50
4739;DHT22;2383;48.632;10.156;2022-07-23T15:48:30;29.80;74.40
4739;DHT22;2383;48.632;10.156;2022-07-23T15:52:32;29.50;74.30
4739;DHT22;2383;48.632;10.156;2022-07-23T15:56:34;28.80;75.50
4739;DHT22;2383;48.632;10.156;2022-07-23T16:00:37;29.50;75.80
4739;DHT22;2383;48.632;10.156;2022-07-23T16:04:39;29.40;75.00
4739;DHT22;2383;48.632;10.156;2022-07-23T16:08:42;29.70;75.00
4739;DHT22;2383;48.632;10.156;2022-07-23T16:12:44;30.10;74.90
4739;DHT22;2383;48.632;10.156;2022-07-23T16:16:47;29.90;75.50
4739;DHT22;2383;48.632;10.156;2022-07-23T16:20:49;29.10;75.80
4739;DHT22;2383;48.632;10.156;2022-07-23T16:24:51;29.50;76.30
4739;DHT22;2383;48.632;10.156;2022-07-23T16:28:53;29.60;77.10
4739;DHT22;2383;48.632;10.156;2022-07-23T16:32:55;30.20;75.30
4739;DHT22;2383;48.632;10.156;2022-07-23T16:36:56;29.50;74.90
4739;DHT22;2383;48.632;10.156;2022-07-23T16:40:58;29.60;74.80
4739;DHT22;2383;48.632;10.156;2022-07-23T16:45:00;30.30;74.80
4739;DHT22;2383;48.632;10.156;2022-07-23T16:49:08;30.70;74.20
4739;DHT22;2383;48.632;10.156;2022-07-23T16:53:10;30.10;74.30
4739;DHT22;2383;48.632;10.156;2022-07-23T16:57:12;29.60;75.70
4739;DHT22;2383;48.632;10.156;2022-07-23T17:01:14;29.70;75.80
4739;DHT22;2383;48.632;10.156;2022-07-23T17:05:15;30.30;75.10
4739;DHT22;2383;48.632;10.156;2022-07-23T17:09:17;30.30;74.90
4739;DHT22;2383;48.632;10.156;2022-07-23T17:13:19;29.90;74.30
4739;DHT22;2383;48.632;10.156;2022-07-23T17:17:21;29.30;75.70
4739;DHT22;2383;48.632;10.156;2022-07-23T17:21:24;29.10;76.40
4739;DHT22;2383;48.632;10.156;2022-07-23T17:25:27;29.40;75.60
4739;DHT22;2383;48.632;10.156;2022-07-23T17:29:30;29.60;73.60
4739;DHT22;2383;48.632;10.156;2022-07-23T17:33:32;29.50;72.80
4739;DHT22;2383;48.632;10.156;2022-07-23T17:37:34;28.80;72.50
4739;DHT22;2383;48.632;10.156;2022-07-23T17:41:37;29.00;73.60
4739;DHT22;2383;48.632;10.156;2022-07-23T17:45:43;29.00;74.10
4739;DHT22;2383;48.632;10.156;2022-07-23T17:49:47;28.80;74.00
4739;DHT22;2383;48.632;10.156;2022-07-23T17:53:51;28.90;73.90
4739;DHT22;2383;48.632;10.156;2022-07-23T17:57:53;29.20;73.90
4739;DHT22;2383;48.632;10.156;2022-07-23T18:01:55;29.10;74.40
4739;DHT22;2383;48.632;10.156;2022-07-23T18:06:01;29.40;73.90
4739;DHT22;2383;48.632;10.156;2022-07-23T18:10:03;28.90;73.70
4739;DHT22;2383;48.632;10.156;2022-07-23T18:14:06;29.20;74.50
4739;DHT22;2383;48.632;10.156;2022-07-23T18:18:11;29.70;74.80
4739;DHT22;2383;48.632;10.156;2022-07-23T18:22:13;30.00;73.60
4739;DHT22;2383;48.632;10.156;2022-07-23T18:26:15;29.70;74.10
4739;DHT22;2383;48.632;10.156;2022-07-23T18:30:17;29.90;74.60
4739;DHT22;2383;48.632;10.156;2022-07-23T18:34:19;30.00;74.70
4739;DHT22;2383;48.632;10.156;2022-07-23T18:38:25;29.80;75.30
4739;DHT22;2383;48.632;10.156;2022-07-23T18:42:27;29.40;75.60
4739;DHT22;2383;48.632;10.156;2022-07-23T18:46:32;29.90;76.20
4739;DHT22;2383;48.632;10.156;2022-07-23T18:50:34;30.10;76.00
4739;DHT22;2383;48.632;10.156;2022-07-23T18:54:38;29.80;76.60
4739;DHT22;2383;48.632;10.156;2022-07-23T18:58:40;29.80;76.30
4739;DHT22;2383;48.632;10.156;2022-07-23T19:02:43;29.60;76.50
4739;DHT22;2383;48.632;10.156;2022-07-23T19:06:48;29.60;76.70
4739;DHT22;2383;48.632;10.156;2022-07-23T19:10:50;29.60;76.90
4739;DHT22;2383;48.632;10.156;2022-07-23T19:14:52;29.50;77.60
4739;DHT22;2383;48.632;10.156;2022-07-23T19:18:54;28.90;78.90
4739;DHT22;2383;48.632;10.156;2022-07-23T19:22:56;29.00;79.80
4739;DHT22;2383;48.632;10.156;2022-07-23T19:26:58;29.10;80.70
4739;DHT22;2383;48.632;10.156;2022-07-23T19:31:07;29.10;80.40
4739;DHT22;2383;48.632;10.156;2022-07-23T19:35:09;29.20;81.30
4739;DHT22;2383;48.632;10.156;2022-07-23T19:39:11;28.90;81.30
4739;DHT22;2383;48.632;10.156;2022-07-23T19:43:13;28.90;81.60
4739;DHT22;2383;48.632;10.156;2022-07-23T19:47:15;28.40;82.30
4739;DHT22;2383;48.632;10.156;2022-07-23T19:51:17;28.30;82.70
4739;DHT22;2383;48.632;10.156;2022-07-23T19:55:19;28.30;82.70
4739;DHT22;2383;48.632;10.156;2022-07-23T19:59:20;28.40;82.50
4739;DHT22;2383;48.632;10.156;2022-07-23T20:03:22;27.50;84.30
4739;DHT22;2383;48.632;10.156;2022-07-23T20:07:24;27.30;85.10
4739;DHT22;2383;48.632;10.156;2022-07-23T20:11:28;27.20;85.70
4739;DHT22;2383;48.632;10.156;2022-07-23T20:15:31;27.40;85.10
4739;DHT22;2383;48.632;10.156;2022-07-23T20:19:33;27.50;85.00
4739;DHT22;2383;48.632;10.156;2022-07-23T20:23:36;26.70;87.20
4739;DHT22;2383;48.632;10.156;2022-07-23T20:27:38;26.10;88.60
4739;DHT22;2383;48.632;10.156;2022-07-23T20:31:40;26.60;87.80
4739;DHT22;2383;48.632;10.156;2022-07-23T20:35:42;27.00;86.90
4739;DHT22;2383;48.632;10.156;2022-07-23T20:39:44;27.40;86.00
4739;DHT22;2383;48.632;10.156;2022-07-23T20:43:46;27.60;85.80
4739;DHT22;2383;48.632;10.156;2022-07-23T20:47:48;27.60;86.20
4739;DHT22;2383;48.632;10.156;2022-07-23T20:51:51;27.80;85.90
4739;DHT22;2383;48.632;10.156;2022-07-23T20:55:53;27.70;86.30
4739;DHT22;2383;48.632;10.156;2022-07-23T20:59:59;27.70;85.50
4739;DHT22;2383;48.632;10.156;2022-07-23T21:04:01;26.90;87.80
4739;DHT22;2383;48.632;10.156;2022-07-23T21:08:04;26.30;89.40
4739;DHT22;2383;48.632;10.156;2022-07-23T21:12:06;26.40;89.00
4739;DHT22;2383;48.632;10.156;2022-07-23T21:16:08;26.70;89.40
4739;DHT22;2383;48.632;10.156;2022-07-23T21:20:13;26.50;87.80
4739;DHT22;2383;48.632;10.156;2022-07-23T21:24:15;27.00;88.90
4739;DHT22;2383;48.632;10.156;2022-07-23T21:28:20;26.60;88.80
4739;DHT22;2383;48.632;10.156;2022-07-23T21:32:22;26.60;89.00
4739;DHT22;2383;48.632;10.156;2022-07-23T21:36:26;26.30;89.60
4739;DHT22;2383;48.632;10.156;2022-07-23T21:40:35;26.50;88.20
4739;DHT22;2383;48.632;10.156;2022-07-23T21:44:37;26.80;88.70
4739;DHT22;2383;48.632;10.156;2022-07-23T21:48:41;26.80;88.80
4739;DHT22;2383;48.632;10.156;2022-07-23T21:52:44;26.00;90.40
4739;DHT22;2383;48.632;10.156;2022-07-23T21:56:46;25.90;90.50
4739;DHT22;2383;48.632;10.156;2022-07-23T22:00:55;26.30;88.20
4739;DHT22;2383;48.632;10.156;2022-07-23T22:04:58;26.20;90.20
4739;DHT22;2383;48.632;10.156;2022-07-23T22:09:04;25.40;90.50
4739;DHT22;2383;48.632;10.156;2022-07-23T22:13:06;25.10;91.40
4739;DHT22;2383;48.632;10.156;2022-07-23T22:17:08;24.80;91.80
4739;DHT22;2383;48.632;10.156;2022-07-23T22:21:10;24.40;92.20
4739;DHT22;2383;48.632;10.156;2022-07-23T22:25:33;23.60;93.20
4739;DHT22;2383;48.632;10.156;2022-07-23T22:29:35;24.20;93.10
4739;DHT22;2383;48.632;10.156;2022-07-23T22:33:40;24.30;92.70
4739;DHT22;2383;48.632;10.156;2022-07-23T22:37:46;23.70;93.10
4739;DHT22;2383;48.632;10.156;2022-07-23T22:41:48;24.00;93.20
4739;DHT22;2383;48.632;10.156;2022-07-23T22:45:49;24.80;92.60
4739;DHT22;2383;48.632;10.156;2022-07-23T22:49:51;25.00;92.30
4739;DHT22;2383;48.632;10.156;2022-07-23T22:54:01;24.70;92.70
4739;DHT22;2383;48.632;10.156;2022-07-23T22:58:03;25.00;92.20
4739;DHT22;2383;48.632;10.156;2022-07-23T23:02:05;25.50;91.40
4739;DHT22;2383;48.632;10.156;2022-07-23T23:06:07;25.60;90.80
4739;DHT22;2383;48.632;10.156;2022-07-23T23:10:11;25.00;91.80
4739;DHT22;2383;48.632;10.156;2022-07-23T23:14:16;24.20;92.40
4739;DHT22;2383;48.632;10.156;2022-07-23T23:18:18;25.00;92.10
4739;DHT22;2383;48.632;10.156;2022-07-23T23:22:19;24.80;92.60
4739;DHT22;2383;48.632;10.156;2022-07-23T23:26:21;24.30;92.90
4739;DHT22;2383;48.632;10.156;2022-07-23T23:30:23;24.40;92.90
4739;DHT22;2383;48.632;10.156;2022-07-23T23:34:28;24.50;93.00
4739;DHT22;2383;48.632;10.156;2022-07-23T23:38:32;25.10;92.10
4739;DHT22;2383;48.632;10.156;2022-07-23T23:42:34;25.00;92.20
4739;DHT22;2383;48.632;10.156;2022-07-23T23:46:37;24.70;92.50
4739;DHT22;2383;48.632;10.156;2022-07-23T23:50:42;24.90;92.50
4739;DHT22;2383;48.632;10.156;2022-07-23T23:54:47;25.10;92.10
4739;DHT22;2383;48.632;10.156;2022-07-23T23:58:49;25.30;91.60
